Santa's Wonderland Christmas 5K Fun Run Results 2017

Santa's Wonderland Christmas 5K Fun Run Results 2017
AG
Pos
Gender
Pos
Overall
Pos
Name Race No Finish
Time
Pace
(3.1 Mile)
Ages 19 and Under
Female
1 2 5 Claire CRAWFORD 1214 00:19:12 6:11 min/m
2 4 11 Tara SWOR 2043 00:20:24 6:34 min/m
3 7 20 Kara DECKER 1249 00:21:32 6:56 min/m
4 10 25 Angela Mena 1379 00:22:19 7:11 min/m
5 16 36 Kelly DECKER 1250 00:22:52 7:22 min/m
6 18 39 Shannon GABRIEL 1331 00:22:59 7:24 min/m
7 23 47 Kate KUNKEL 1581 00:23:34 7:35 min/m
8 26 53 Tyler GOODE 1380 00:23:58 7:43 min/m
9 29 61 Tere ALFARO 1014 00:24:48 7:59 min/m
10 30 62 Julie ALFARO 1013 00:24:48 7:59 min/m
11 32 64 Amy DECKER 1251 00:24:56 8:02 min/m
12 33 65 Anahi GARCIA 1340 00:25:13 8:07 min/m
13 34 66 Madelyn SPOTTSWOOD 2010 00:25:14 8:08 min/m
14 37 71 Kate HINCKLEY 1450 00:25:29 8:13 min/m
15 46 87 Sydney SMITH 1983 00:27:07 8:44 min/m
16 47 88 Danica GODKIN 1368 00:27:09 8:45 min/m
17 49 90 Zoey WIATREK 2161 00:27:15 8:47 min/m
18 54 96 Kaylee HINKLE 1452 00:27:26 8:50 min/m
19 55 97 Olivia MOSS 1767 00:27:27 8:51 min/m
20 57 102 Bethany WHITTAKER 2159 00:27:42 8:55 min/m
21 58 103 Tracy WOODARD 2180 00:27:42 8:56 min/m
22 59 104 Erin FAGERQUIST 1301 00:27:43 8:56 min/m
23 81 134 Sage PROCHAZKA 1852 00:28:43 9:15 min/m
24 83 136 Lexi YOUNG 2194 00:28:45 9:16 min/m
25 88 144 Taylor THOMPSON 2060 00:28:55 9:19 min/m
26 98 158 Shay KOWALIK 1574 00:29:16 9:26 min/m
27 99 159 Victoria PONTIFF 1839 00:29:18 9:27 min/m
28 102 163 Alexa GOEBEL 1372 00:29:24 9:28 min/m
29 107 170 Angelica VEGA 2105 00:29:38 9:33 min/m
30 109 173 Elisabeth TAKAYANAGI 2047 00:29:54 9:38 min/m
31 114 183 Kathryn DEVERS 1256 00:30:10 9:43 min/m
32 120 195 Hannah CONNOR 1199 00:30:43 9:54 min/m
33 125 201 Mckenzie BAGE 1046 00:30:55 9:58 min/m
34 137 217 Brooklyn LONER 1635 00:31:17 10:05 min/m
35 149 232 Paige BUTLER 1147 00:31:37 10:11 min/m
36 153 237 Brittney HAJEK 1422 00:31:44 10:14 min/m
37 162 251 Kaylee ROYDER 1927 00:32:13 10:23 min/m
38 164 255 Autumn JERIA 1499 00:32:16 10:24 min/m
39 178 272 Claire GATLIN 1353 00:32:36 10:30 min/m
40 185 280 Kaitlyn KELLY 1530 00:32:50 10:35 min/m
41 191 288 Caroline SPENGLER 2006 00:33:03 10:39 min/m
42 194 293 Taylor LENAHAN 1614 00:33:06 10:40 min/m
43 212 322 Tiffany RIPPLE 1901 00:33:43 10:52 min/m
44 220 333 Sherri RODRIGUEZ 1916 00:33:50 10:54 min/m
45 224 339 Cortney RIGGS 1891 00:33:53 10:55 min/m
46 225 341 Cecilia KILLALEA 1548 00:33:55 10:56 min/m
47 228 344 Emily JENKINS 1496 00:33:57 10:56 min/m
48 233 350 Sarah VENABLES 2108 00:34:07 11:00 min/m
49 234 351 Zoee NEWTON 1782 00:34:11 11:01 min/m
50 235 352 Landri LEE 1609 00:34:12 11:01 min/m
51 237 354 Kaitlyn ZODA 2199 00:34:13 11:01 min/m
52 238 356 Ava KAUFMAN 1521 00:34:13 11:02 min/m
53 243 363 Amalise Pickard 2203 00:34:23 11:05 min/m
54 247 367 Becca ZODA 2198 00:34:27 11:06 min/m
55 248 368 Emily ZODA 2200 00:34:28 11:06 min/m
56 251 372 Madison HOLLIER 1463 00:34:31 11:07 min/m
57 256 378 Kyleigh MEUTH 1731 00:34:36 11:09 min/m
58 258 381 Leila SKARE 1976 00:34:39 11:10 min/m
59 262 391 Courtney LESTER 1620 00:34:49 11:13 min/m
60 263 393 Claire HAIGWOOD 1415 00:34:49 11:13 min/m
61 265 395 Kendall ARAGUZ 1030 00:34:50 11:13 min/m
62 273 403 Julia MOORE 1755 00:34:54 11:15 min/m
63 277 410 Katie UPTON 2085 00:35:00 11:17 min/m
64 286 424 Elyse CANNON 1156 00:35:16 11:22 min/m
65 287 426 Avery GOEBEL 1371 00:35:16 11:22 min/m
66 299 443 Marley GROS 1402 00:35:32 11:27 min/m
67 300 444 Kanaan BERTRAND 1079 00:35:32 11:27 min/m
68 301 445 Lauren KINCAID 1552 00:35:33 11:27 min/m
69 306 453 Amber PEAVLER 1817 00:35:48 11:32 min/m
70 309 458 Hannah MOECKEL 1745 00:35:53 11:34 min/m
71 334 495 Megan KELLY 1532 00:37:23 12:03 min/m
72 341 503 Morgan CURRIE 1226 00:37:58 12:14 min/m
73 348 513 Kathy RUIZ 1929 00:38:04 12:16 min/m
74 351 517 Parker BARNETT 1061 00:38:10 12:18 min/m
75 352 518 Darby SALGE 1941 00:38:10 12:18 min/m
76 375 546 Aubree SPARKS 2001 00:38:57 12:33 min/m
77 382 556 Evelyn PROCHASKA 1846 00:39:23 12:41 min/m
78 384 558 Emilie REYBURN 1883 00:39:25 12:42 min/m
79 391 568 Kennadee PRINZ 1844 00:39:38 12:46 min/m
80 394 571 Reann HSU 1475 00:39:48 12:50 min/m
81 400 581 Viv SKARE 1975 00:39:56 12:52 min/m
82 421 611 Lili JERIA 1500 00:40:24 13:01 min/m
83 424 615 Laura ALFARO 1015 00:40:31 13:03 min/m
84 431 623 Lillian NORTON 1789 00:40:42 13:07 min/m
85 437 629 Brandy-Fey STRATTON 2025 00:40:49 13:09 min/m
86 439 632 Sydney RIGGS 1895 00:40:55 13:11 min/m
87 447 643 Arianie ROCHA 1910 00:41:22 13:20 min/m
88 454 651 Carla ALFARO 1016 00:41:34 13:24 min/m
89 459 659 Alexia BISTANY 1088 00:41:55 13:31 min/m
90 463 664 Chloe BIRNBAUM 1084 00:42:05 13:34 min/m
91 477 681 Chantel AUNGST 1039 00:42:43 13:46 min/m
92 479 685 Kendall LAUGHLIN 1600 00:42:45 13:47 min/m
93 496 707 Madison WARD 2133 00:43:25 14:00 min/m
94 505 718 Maggie O'CONNOR 1795 00:43:57 14:10 min/m
95 509 725 Sydney LOPEZ 1642 00:44:18 14:17 min/m
96 513 729 Cadence BLACKWEL 1092 00:44:23 14:18 min/m
97 517 736 Katelyn MATHIS 1682 00:44:51 14:27 min/m
98 529 753 Avery HUGHES 1479 00:46:00 14:50 min/m
99 532 756 Jayme CONDRY 1195 00:46:08 14:52 min/m
100 533 757 Jay GUTIERREZ 1409 00:46:17 14:55 min/m
101 541 769 Brittany KNOX 1561 00:46:25 14:58 min/m
102 542 770 Gabrielle ADAMS 1003 00:46:25 14:58 min/m
103 571 811 Morgan MORIARTY 1761 00:48:02 15:29 min/m
104 575 816 Abby MCBRIDE 1693 00:48:17 15:34 min/m
105 576 817 Shelby JOHN 1505 00:48:18 15:34 min/m
106 586 828 Keely PIERCE 1832 00:48:42 15:42 min/m
107 616 863 Paisley LONON 1638 00:50:44 16:21 min/m
108 639 893 Hailey HENRY 1439 00:52:08 16:48 min/m
109 640 894 Kerri ARAGUZ 1031 00:52:08 16:49 min/m
110 645 899 Kinleigh BAGGETT 1050 00:52:32 16:56 min/m
111 647 904 Natalie COLLINS 1192 00:52:53 17:03 min/m
112 653 913 Carleigh CUSSON 1228 00:53:18 17:11 min/m
113 659 924 Nora HOLLOMAN 1466 00:53:38 17:17 min/m
114 667 933 Erial GRAFTON 1390 00:54:16 17:30 min/m
115 694 968 Kallie STRONG 2035 00:56:59 18:22 min/m
116 701 984 Wynter STRAUSS 2029 00:57:14 18:27 min/m
117 702 985 Brynnley LAAKE 1584 00:57:22 18:30 min/m
118 708 996 Madison MCCLENEY 1697 00:58:13 18:46 min/m
119 724 1018 Kate WHITTAKER 2160 00:59:11 19:05 min/m
120 726 1022 Kelsi GIBSON 1359 00:59:39 19:14 min/m
121 728 1024 Natalee VARELA 2094 00:59:52 19:18 min/m
122 753 1058 Emerald GRAFTON 1389 01:06:30 21:27 min/m
Male
1 2 3 Rocky Patrick SEALE 1962 00:18:18 5:54 min/m
2 4 7 Kevin Lopez 2179 00:19:15 6:12 min/m
3 5 8 Brett LERCH 1617 00:19:16 6:12 min/m
4 7 10 Christopher BLAKEY 1100 00:20:18 6:32 min/m
5 8 12 Cody RIGGS 1892 00:20:55 6:44 min/m
6 11 16 Matthew HAIGWOOD 1416 00:21:12 6:50 min/m
7 13 18 Christian RICHERT 1887 00:21:28 6:55 min/m
8 16 26 Will PROCHAZKA 1849 00:22:23 7:12 min/m
9 17 28 Cade PROCHAZKA 1851 00:22:23 7:13 min/m
10 22 40 Eric CARLIN 1159 00:23:05 7:26 min/m
11 27 52 Michael KELLY 1531 00:23:56 7:43 min/m
12 29 55 Chance CRAWFORD 1215 00:24:19 7:50 min/m
13 30 56 Colby TATE 2054 00:24:22 7:51 min/m
14 35 72 Grant MEUTH 1732 00:25:33 8:14 min/m
15 45 101 Rusty LY-MCMURRAY 1654 00:27:36 8:54 min/m
16 50 122 Marco GARCIA 1347 00:28:27 9:10 min/m
17 56 143 Trevor THOMPSON 2061 00:28:54 9:19 min/m
18 62 164 Andrew LEWIS 1623 00:29:24 9:28 min/m
19 63 168 Shane LARD 1596 00:29:33 9:31 min/m
20 77 209 Blayn CLARK 1183 00:31:09 10:02 min/m
21 84 235 Timothy LESTER 1621 00:31:44 10:14 min/m
22 94 267 Austin ALLEN 1020 00:32:29 10:28 min/m
23 115 336 Caleb RODRIGUEZ 1915 00:33:51 10:55 min/m
24 117 347 Conner TATE 2053 00:34:03 10:58 min/m
25 121 370 Hunter HOLLIER 1464 00:34:31 11:07 min/m
26 125 385 Christopher GARCIA 1345 00:34:45 11:12 min/m
27 130 392 Levi GRAHAM 1394 00:34:49 11:13 min/m
28 145 446 Isaac VARELA 2093 00:35:35 11:28 min/m
29 146 448 Diego ALFARO 1012 00:35:40 11:30 min/m
30 148 455 Jacob PEAVLER 1819 00:35:49 11:33 min/m
31 149 457 Trey BROOKS 1133 00:35:53 11:34 min/m
32 153 474 Carmichael GRAFTON 1391 00:36:37 11:48 min/m
33 154 475 Jack PROCHAZKA 1853 00:36:38 11:48 min/m
34 156 478 Robert ALLEN 1021 00:36:45 11:51 min/m
35 158 484 Zane NEWTON 1783 00:36:53 11:53 min/m
36 161 492 Matthew SPENGLER 2007 00:37:17 12:01 min/m
37 168 530 Cooper CUFFE 1219 00:38:39 12:27 min/m
38 169 531 Zack KRAUSE 1576 00:38:39 12:27 min/m
39 173 548 Liam MACDONALD 1659 00:38:57 12:33 min/m
40 175 559 Tristan GALVAN 1333 00:39:30 12:44 min/m
41 176 561 Cayden GALVAN 1334 00:39:31 12:44 min/m
42 178 577 Rex HSU 1476 00:39:52 12:51 min/m
43 180 579 Joey V SKARE 1977 00:39:53 12:51 min/m
44 190 609 Nolan NEWCOMB 1779 00:40:22 13:01 min/m
45 192 619 Landry REAMES 1873 00:40:36 13:05 min/m
46 194 635 Luke RIGGS 1896 00:41:00 13:13 min/m
47 196 642 Zachary GRAY 1398 00:41:21 13:20 min/m
48 198 653 Rylan REAMES 1874 00:41:36 13:24 min/m
49 200 656 Jaxton ROYDER 1926 00:41:41 13:26 min/m
50 201 662 Joshua VARELA 2095 00:42:00 13:32 min/m
51 204 678 Peyton KEEN 1529 00:42:38 13:44 min/m
52 205 682 Carter MATUS 1686 00:42:43 13:46 min/m
53 207 688 Eric GARCIA 1346 00:42:50 13:48 min/m
54 208 692 Brett SNOOK 1987 00:42:54 13:50 min/m
55 209 697 Ethan FAGERQUIST 1300 00:43:00 13:52 min/m
56 222 744 Preston KEEN 1528 00:45:31 14:40 min/m
57 223 748 Jordan MILLS 1738 00:45:49 14:46 min/m
58 228 767 Cody STONE 2023 00:46:23 14:57 min/m
59 245 846 Sawyer SPARKS 2002 00:49:58 16:06 min/m
60 249 869 Keegan LOVELL 1648 00:50:54 16:25 min/m
61 257 903 Alfonso DELASCUEVAS 1253 00:52:53 17:03 min/m
62 259 907 Robert SIMMONS 1970 00:53:13 17:09 min/m
63 266 926 Lance TOBOLA 2069 00:53:40 17:18 min/m
64 271 943 Will ADCOX 1007 00:55:11 17:48 min/m
65 276 970 Collin DAVIS 1244 00:57:03 18:24 min/m
66 277 971 John DAVIS 1242 00:57:03 18:24 min/m
67 279 974 Levi STRAUSS 2028 00:57:06 18:25 min/m
68 287 991 Jackson LAUGHLIN 1599 00:57:39 18:35 min/m
69 292 1012 Murphy BLACK 1090 00:59:04 19:03 min/m
70 293 1014 Kaleb STRONG 2034 00:59:05 19:03 min/m
71 296 1020 James MALDONADO 1663 00:59:20 19:08 min/m
72 299 1036 Gavin UEHARA 2082 01:00:56 19:39 min/m
Ages 20 - 29
Female
1 1 2 Amanda CORONADO 1204 00:17:31 5:38 min/m
2 8 21 Amanda SPILLER 2008 00:21:33 6:56 min/m
3 39 74 Anabel VEGA 2106 00:25:48 8:19 min/m
4 41 80 Rachel JAMES 1491 00:26:21 8:29 min/m
5 42 82 Holly O'FLAHERTY 1801 00:26:25 8:31 min/m
6 43 84 Brittany HALL 1423 00:26:30 8:32 min/m
7 44 85 Mckenzie RUST 1934 00:26:40 8:36 min/m
8 45 86 Katrina SCHILLING 1949 00:26:47 8:38 min/m
9 50 91 Shannon DONNELLY 1268 00:27:16 8:47 min/m
10 53 95 Jessica ARELLANO 1034 00:27:25 8:50 min/m
11 60 105 Maria APREZA 1028 00:27:46 8:57 min/m
12 61 106 Rachel REISTINO 1879 00:27:49 8:58 min/m
13 66 114 Kathryne ANDREO 1026 00:28:02 9:02 min/m
14 70 119 Suzy NAZIMEK 1774 00:28:17 9:07 min/m
15 90 148 Ashley PARR 1812 00:29:07 9:23 min/m
16 91 149 Marjorie CAMPBELL 1154 00:29:07 9:23 min/m
17 93 151 Elizabeth HOBAUGH 1454 00:29:12 9:24 min/m
18 95 154 Jessica SCARFUTO 1948 00:29:12 9:25 min/m
19 101 161 Eron BONNER 1111 00:29:20 9:27 min/m
20 115 184 Clarisa ROMERO 1921 00:30:14 9:44 min/m
21 116 185 Stacey NORMAN 1787 00:30:14 9:44 min/m
22 117 190 Kimberley KUIJPER 1580 00:30:38 9:52 min/m
23 118 193 Abby GILLILAND 1364 00:30:41 9:53 min/m
24 119 194 Lauren HURLEY 1483 00:30:41 9:53 min/m
25 121 197 Madison JONES 1515 00:30:49 9:56 min/m
26 123 199 Jordan GOTH 1385 00:30:52 9:57 min/m
27 124 200 Emma MCCORMICK 1699 00:30:52 9:57 min/m
28 129 205 Autum JOHNSON 1506 00:31:04 10:01 min/m
29 133 210 Lauren REISTINO 1880 00:31:11 10:03 min/m
30 135 214 Kayla COREY 1202 00:31:15 10:04 min/m
31 142 223 Erin BRANNAN 1119 00:31:22 10:06 min/m
32 143 224 Adriana VEGA 2103 00:31:25 10:07 min/m
33 144 226 Alexa BECKER 1070 00:31:29 10:09 min/m
34 145 228 Alexandra TROTT 2077 00:31:30 10:09 min/m
35 146 229 Kelsey SCHULTE 1956 00:31:32 10:10 min/m
36 148 231 Amy ROGERS 1920 00:31:33 10:10 min/m
37 150 233 Kelly MAREK 1667 00:31:39 10:12 min/m
38 154 238 Cassidy KOEHLER 1562 00:31:45 10:14 min/m
39 159 248 Libby DAGGERS 1229 00:32:06 10:21 min/m
40 160 249 Lauren JARVIS 1493 00:32:11 10:22 min/m
41 161 250 Audrey GIRARD 1365 00:32:11 10:22 min/m
42 163 253 Lani PUSATERI 1855 00:32:15 10:23 min/m
43 166 257 Joselin BARAJAS 1057 00:32:20 10:25 min/m
44 170 261 Emily MONROE 1746 00:32:24 10:26 min/m
45 171 263 Ashley HALLETT 1424 00:32:26 10:27 min/m
46 177 271 Kelcey BAROS 1062 00:32:35 10:30 min/m
47 180 274 Sarah SOMMER 1991 00:32:40 10:32 min/m
48 183 277 Lauren MORGAN 1758 00:32:44 10:33 min/m
49 184 278 Alexandra BLAND 1103 00:32:49 10:34 min/m
50 195 294 Tiffany CLARK 1184 00:33:08 10:41 min/m
51 196 295 Kristin GABRIEL 1330 00:33:08 10:41 min/m
52 206 312 Lauren KENT 1534 00:33:35 10:49 min/m
53 207 313 Chelsey ANDERSON 1024 00:33:35 10:49 min/m
54 208 314 Lauren KOEN 1563 00:33:35 10:49 min/m
55 210 319 Brittney FLOWERS 1314 00:33:38 10:50 min/m
56 211 321 Meagan KAULFUS 1523 00:33:43 10:52 min/m
57 214 325 Sonali KOTHARE 1571 00:33:44 10:52 min/m
58 216 328 Shelby BEIER 1073 00:33:47 10:53 min/m
59 217 329 Ashley SCHNELL 1953 00:33:48 10:53 min/m
60 218 331 Kristen HARRIS 1432 00:33:49 10:54 min/m
61 223 338 Rebekah TOLLESON 2070 00:33:53 10:55 min/m
62 226 342 Elizabeth PERDUE 1824 00:33:55 10:56 min/m
63 230 346 Alyssa VEGA 2102 00:34:01 10:58 min/m
64 244 364 Leslie LOPEZ 1641 00:34:24 11:05 min/m
65 249 369 Sarah VAUGHAN 2098 00:34:29 11:07 min/m
66 250 371 Haley WILKERSON 2164 00:34:31 11:07 min/m
67 253 375 Casey DONNELLY 1269 00:34:33 11:08 min/m
68 254 376 Lorena LOMELI 1633 00:34:34 11:08 min/m
69 259 383 Mariah SUSTAIRE 2038 00:34:41 11:11 min/m
70 261 390 Caitlin O'CONNOR 1793 00:34:48 11:13 min/m
71 264 394 Hailey DAVIS 1239 00:34:49 11:13 min/m
72 281 414 Lucy LAY 1606 00:35:02 11:17 min/m
73 283 418 Daisy BEALS 1067 00:35:08 11:19 min/m
74 284 421 Ashley WAGNER 2116 00:35:10 11:20 min/m
75 291 432 Nicole KING 1555 00:35:20 11:23 min/m
76 294 436 Candice MCCORMICK 1698 00:35:22 11:24 min/m
77 297 439 Meagan ELINSKI 1287 00:35:30 11:27 min/m
78 305 452 Alyssa KIESCHNICK 1545 00:35:46 11:32 min/m
79 308 456 Gladys CRUZ 1217 00:35:50 11:33 min/m
80 310 459 Robert WALDROP 2121 00:35:55 11:34 min/m
81 312 462 Hayley WALDROP 2120 00:35:56 11:35 min/m
82 314 465 Christina LOPEZ 1639 00:36:23 11:43 min/m
83 319 471 Makenzie MCKEE 1707 00:36:34 11:47 min/m
84 323 480 Abigail JONES 1516 00:36:50 11:52 min/m
85 324 481 Mackenzie HOFFMAN 1460 00:36:50 11:52 min/m
86 333 494 Laura PENA 1822 00:37:23 12:03 min/m
87 335 496 Colby SOUTH 1993 00:37:32 12:06 min/m
88 337 498 Stephanie WILLIAMS 2166 00:37:42 12:09 min/m
89 347 511 Paola MARTINEZ 1680 00:38:02 12:16 min/m
90 349 514 Melissa IVY 1488 00:38:07 12:17 min/m
91 350 515 Samantha HERNANDEZ 1441 00:38:08 12:17 min/m
92 353 519 Sarah ORR 1804 00:38:11 12:18 min/m
93 354 520 Heather DEERE 1252 00:38:14 12:19 min/m
94 356 522 Hannah DELEON 1254 00:38:26 12:23 min/m
95 362 529 Shelby STOLTE 2021 00:38:36 12:26 min/m
96 363 532 Tessily HOGANCAMP 1461 00:38:42 12:28 min/m
97 387 564 Mackenna SPALDING 1995 00:39:33 12:45 min/m
98 388 565 Caylie SPALDING 1997 00:39:34 12:45 min/m
99 398 575 Moriah THOMPSON 2063 00:39:51 12:51 min/m
100 402 583 Sindy GONZALEZ 1376 00:39:57 12:53 min/m
101 406 587 Skylar KILLEBREW 1550 00:40:05 12:55 min/m
102 407 589 Steph SCOTT 1961 00:40:11 12:57 min/m
103 410 593 Megan CERCEO 1166 00:40:14 12:58 min/m
104 414 600 Jamie MCKNIGHT 1710 00:40:20 13:00 min/m
105 416 603 Katy MARKS 1669 00:40:21 13:00 min/m
106 417 606 Katie MCCAIN 1695 00:40:22 13:00 min/m
107 420 610 Magari GONZALEZ 1377 00:40:22 13:01 min/m
108 425 616 Chelsea CLIFTON 1187 00:40:31 13:04 min/m
109 426 617 Corinne BEVERLY 1080 00:40:33 13:04 min/m
110 429 621 Annie SCHWANKE 1958 00:40:42 13:07 min/m
111 432 624 Jennifer ANDERSON 1025 00:40:44 13:08 min/m
112 444 638 Sarah LAMBERT 1587 00:41:06 13:15 min/m
113 445 639 Allison RASSINOUX 1864 00:41:17 13:18 min/m
114 449 646 Martha MENDOZA 1724 00:41:31 13:23 min/m
115 452 649 Kara GARBER 1339 00:41:34 13:24 min/m
116 453 650 Rachael MALONSON 1664 00:41:34 13:24 min/m
117 455 652 Rosalia ALFARO 1010 00:41:34 13:24 min/m
118 458 658 Jessica FLORES 1312 00:41:53 13:30 min/m
119 461 661 Kaylan HARRIS 1430 00:42:00 13:32 min/m
120 465 666 Courtney WYATT 2188 00:42:20 13:39 min/m
121 468 670 Vanessa ASTLE 1037 00:42:22 13:39 min/m
122 470 672 Brittany MOORE 1753 00:42:26 13:41 min/m
123 472 674 Hannah BEAN 1068 00:42:33 13:43 min/m
124 485 693 Kyleigh VINING 2112 00:42:54 13:50 min/m
125 486 694 Kiarra VINING 2111 00:42:55 13:50 min/m
126 492 702 Sarah KENT 1535 00:43:12 13:55 min/m
127 515 733 Aracely VEGA 2104 00:44:44 14:25 min/m
128 516 735 Morgan DIETZ 1262 00:44:51 14:27 min/m
129 534 759 Amanda WIREMAN 2175 00:46:18 14:55 min/m
130 538 764 Rachel PARKER 1810 00:46:21 14:56 min/m
131 546 774 Brooke HOWELL 1473 00:46:31 15:00 min/m
132 548 779 Sarah HADLEY 1411 00:46:46 15:05 min/m
133 559 792 Christina CULLEY 1220 00:47:08 15:12 min/m
134 560 796 Nicole BECKMAN 1071 00:47:11 15:13 min/m
135 565 803 Courtney CONE 1196 00:47:42 15:23 min/m
136 566 804 Katelyn SOWA 1994 00:47:43 15:23 min/m
137 568 807 Lexus BAGGETT 1049 00:47:53 15:26 min/m
138 569 809 Perla RODRIGUEZ 1912 00:47:59 15:28 min/m
139 577 818 Juana CARBALLO 1158 00:48:19 15:35 min/m
140 579 820 Taylor SMITH 1984 00:48:33 15:39 min/m
141 582 823 Hayley FRAKES 1321 00:48:37 15:40 min/m
142 584 825 Taylor MORRISON 1762 00:48:40 15:41 min/m
143 589 832 Jacqueline LAWRENCE 1603 00:48:58 15:47 min/m
144 595 838 Kayla BRITTON 1132 00:49:32 15:58 min/m
145 598 842 Kayla HODGE 1455 00:49:34 15:59 min/m
146 607 852 Amber NOVOTNY 1790 00:50:04 16:08 min/m
147 610 857 Katlyn ROSENBAUM 1922 00:50:16 16:12 min/m
148 613 860 Casey HODGES 1457 00:50:22 16:14 min/m
149 614 861 Heather CARRANZA 1160 00:50:26 16:15 min/m
150 615 862 Katie WALKER 2125 00:50:32 16:17 min/m
151 628 878 Natalie JONES 1512 00:51:21 16:33 min/m
152 629 879 Kara MORSE 1765 00:51:26 16:35 min/m
153 631 883 Jennifer SCAIFE 1946 00:51:30 16:36 min/m
154 644 898 Samantha JOCK 1503 00:52:31 16:56 min/m
155 655 919 Erica LOWE 1649 00:53:32 17:15 min/m
156 657 921 Ashley HACKER 1410 00:53:32 17:16 min/m
157 660 925 Jessica BISSETT 1086 00:53:39 17:18 min/m
158 664 930 Kayla STREETS 2030 00:54:02 17:25 min/m
159 666 932 Brianna FRERICH 1326 00:54:03 17:25 min/m
160 672 940 Shelby HERMAN 1440 00:54:36 17:36 min/m
161 674 946 Haley MANRY 1666 00:55:28 17:53 min/m
162 685 957 Teresa NUNEZ 1792 00:56:03 18:04 min/m
163 686 958 Ashley UVALLE 2087 00:56:04 18:04 min/m
164 687 960 Christina CARROZZA 1161 00:56:20 18:10 min/m
165 689 962 Jo GARZA 1350 00:56:23 18:11 min/m
166 693 967 Brianna GROVES 1404 00:56:46 18:18 min/m
167 697 977 Katy MARTIN 1677 00:57:09 18:25 min/m
168 707 995 Ashlyn GRAHAM 1395 00:57:59 18:42 min/m
169 709 997 Shannon WADE 2113 00:58:18 18:48 min/m
170 712 1001 Lacey ADKINS 1008 00:58:20 18:48 min/m
171 721 1013 Tiffany WARNER 2134 00:59:05 19:03 min/m
172 723 1017 Charli BLACK 1089 00:59:06 19:03 min/m
173 730 1026 Whitney BREWER 1124 01:00:06 19:22 min/m
174 731 1028 Rachel GUNTER 1407 01:00:29 19:30 min/m
175 741 1043 Mariah GOODRUM 1383 01:01:22 19:47 min/m
176 755 1060 Alyssa GILBERT 1361 01:10:13 22:38 min/m
177 759 1064 Meghann BLEA 1105 01:13:02 23:33 min/m
Male
1 1 1 Darren DUBOSE 1274 00:17:30 5:38 min/m
2 3 4 Justin BUI 1142 00:19:10 6:10 min/m
3 10 15 Cody GRANT 1396 00:21:11 6:49 min/m
4 14 23 Rigoberto LOPEZ 1644 00:21:50 7:02 min/m
5 19 32 Hunter HUX 1486 00:22:35 7:17 min/m
6 21 38 Andrew MCGOVERN 1705 00:22:59 7:24 min/m
7 23 43 Andrew ASTLE 1036 00:23:23 7:32 min/m
8 28 54 Jonathan PAWLAK 1815 00:24:12 7:48 min/m
9 31 59 Eloy JIMENEZ 1501 00:24:41 7:57 min/m
10 42 94 Orlando ARELLANO 1033 00:27:25 8:50 min/m
11 44 99 Michael VAUGHAN 2097 00:27:32 8:52 min/m
12 55 142 Nick LOGAN 1631 00:28:54 9:19 min/m
13 68 181 Derek BYRNE 1150 00:30:10 9:43 min/m
14 69 182 Cameron WOLF 2176 00:30:10 9:43 min/m
15 73 189 Benjamin DOWDELL 1271 00:30:38 9:52 min/m
16 74 191 Caleb LAFOLLETTE 1585 00:30:40 9:53 min/m
17 75 192 Andrew HURLEY 1484 00:30:40 9:53 min/m
18 79 212 Sean DEMPSEY 1255 00:31:15 10:04 min/m
19 81 221 Ben WALTERS 2130 00:31:21 10:06 min/m
20 88 245 Dustin MORETT 1757 00:31:56 10:17 min/m
21 93 264 Chris RAINS 1857 00:32:26 10:27 min/m
22 95 279 Aaron BLAND 1102 00:32:49 10:34 min/m
23 103 304 Cody LEE 1610 00:33:31 10:48 min/m
24 106 311 William GUNNELS 1406 00:33:34 10:49 min/m
25 110 320 Johnny RAMIREZ 1858 00:33:41 10:51 min/m
26 112 327 Sunny Kothare 1135 00:33:45 10:53 min/m
27 114 335 Michael GARCIA 1342 00:33:51 10:54 min/m
28 119 357 Nolan GOTH 1386 00:34:15 11:02 min/m
29 122 373 Chad O'DONNELL 1798 00:34:31 11:07 min/m
30 135 416 Jesus RIOJAS 1898 00:35:05 11:19 min/m
31 140 427 Riley ROCHA 1908 00:35:16 11:22 min/m
32 142 435 Matt MCGAUGHEY 1703 00:35:21 11:24 min/m
33 144 441 Brian YOUNG 2192 00:35:31 11:27 min/m
34 147 451 Derek KIESCHNICK 1546 00:35:46 11:32 min/m
35 150 460 Jonathan RIOS 1899 00:35:55 11:35 min/m
36 155 476 Ivan FABIAN 1297 00:36:44 11:50 min/m
37 157 479 Rob IVY 1489 00:36:50 11:52 min/m
38 166 516 Noel ARELLANO 1032 00:38:08 12:18 min/m
39 170 535 Josh HOGANCAMP 1462 00:38:43 12:29 min/m
40 181 580 Nathan GARROW 1349 00:39:53 12:51 min/m
41 183 590 Brice SCOTT 1960 00:40:11 12:57 min/m
42 186 597 Patrick MCKNIGHT 1709 00:40:18 12:59 min/m
43 187 602 Jesse WOOLLEY 2181 00:40:21 13:00 min/m
44 189 605 Joshua MCKERLEY 1708 00:40:21 13:00 min/m
45 206 684 Scott AUNGST 1038 00:42:44 13:46 min/m
46 210 701 Tim SCHMITT 1951 00:43:12 13:55 min/m
47 217 730 Paul MCVAY 1714 00:44:26 14:19 min/m
48 219 734 Ryan CHOMISTEK 1174 00:44:50 14:27 min/m
49 220 739 Tanner TATE 2052 00:44:56 14:29 min/m
50 229 775 Brian ALLEN 1017 00:46:32 15:00 min/m
51 230 777 Trey HADLEY 1412 00:46:44 15:04 min/m
52 236 795 Wesley WENDT 2143 00:47:10 15:12 min/m
53 239 806 Ted CROSS 1216 00:47:46 15:24 min/m
54 240 808 Jaime DE LOS SANTOS 1247 00:47:59 15:28 min/m
55 244 841 Ryan HODGE 1456 00:49:34 15:59 min/m
56 247 856 Paul WALLACE 2129 00:50:15 16:12 min/m
57 251 880 James JONES 1513 00:51:28 16:35 min/m
58 252 881 Robert JONES 1511 00:51:29 16:36 min/m
59 260 908 Jordan SIMMONS 1971 00:53:13 17:09 min/m
60 262 916 Cameron KORENEK 1567 00:53:30 17:15 min/m
61 264 918 Ashton KORENEK 1570 00:53:32 17:15 min/m
62 274 966 Caleb GROVES 1403 00:56:45 18:18 min/m
63 281 978 Justin MOSSBURG 1769 00:57:09 18:25 min/m
64 289 998 Blake WADE 2114 00:58:19 18:48 min/m
65 300 1038 Travis LAY 1607 01:01:06 19:42 min/m
Ages 30 - 39
Female
1 3 6 Wendi KIRKLAND 1557 00:19:12 6:11 min/m
2 12 30 Lesley MIZER 1743 00:22:29 7:14 min/m
3 14 34 Crystal VANN 2089 00:22:40 7:18 min/m
4 19 41 Aimee LANTER 1594 00:23:10 7:28 min/m
5 20 42 Doris CONLEY 1198 00:23:13 7:29 min/m
6 24 48 Elizabeth MCDANIEL 1701 00:23:41 7:38 min/m
7 25 51 Jamie HONS 1469 00:23:51 7:41 min/m
8 27 57 Jamie BREDTHAUER 1121 00:24:23 7:51 min/m
9 28 58 Vanessa FAIR 1302 00:24:41 7:57 min/m
10 31 63 Kell LOCKE 1628 00:24:49 8:00 min/m
11 35 69 Krystle ZAPALAC 2195 00:25:22 8:10 min/m
12 51 92 Diana MARTINEZ 1679 00:27:17 8:48 min/m
13 52 93 Randi MCBROOM 1694 00:27:18 8:48 min/m
14 62 107 Jacquelyn RUST 1936 00:27:51 8:58 min/m
15 64 109 Brandy BONIN 1110 00:27:54 8:59 min/m
16 65 112 Tania VENTURA 2109 00:27:57 9:00 min/m
17 67 115 Crystal JONES 1518 00:28:09 9:04 min/m
18 68 117 Stephanie MATTHEWS 1685 00:28:15 9:06 min/m
19 69 118 Amanda REAMES 1871 00:28:16 9:07 min/m
20 72 121 Heather MICHALSKY 1733 00:28:20 9:08 min/m
21 73 124 Lan LY 1653 00:28:28 9:10 min/m
22 74 126 Wendy THOMPSON 2059 00:28:29 9:11 min/m
23 76 128 Tiffany MAY 1691 00:28:32 9:12 min/m
24 78 131 Jennifer PADILLA 1807 00:28:40 9:14 min/m
25 80 133 Myrna RAZO 1869 00:28:43 9:15 min/m
26 85 138 Nikki PROCHAZKA 1848 00:28:49 9:17 min/m
27 86 139 Jen PROCHAZKA 1850 00:28:49 9:17 min/m
28 87 141 Bridgette GRAY 1400 00:28:52 9:18 min/m
29 89 146 Mary KIRKLAND 1558 00:28:59 9:20 min/m
30 94 152 Sara WORTHAM 2182 00:29:12 9:24 min/m
31 105 167 Rachel LARD 1595 00:29:33 9:31 min/m
32 106 169 Kasey GASKA 1351 00:29:36 9:32 min/m
33 112 178 Natalie MACDONALD 1658 00:30:05 9:42 min/m
34 113 179 Tiffany SUTHERLAND 2039 00:30:06 9:42 min/m
35 122 198 Julie BOETTIGER 1109 00:30:50 9:56 min/m
36 128 204 Jessica INDERWIESEN 1487 00:31:03 10:00 min/m
37 130 206 Tamra MECCAUGHLY 1718 00:31:07 10:01 min/m
38 131 207 Ashli GACHES 1332 00:31:07 10:02 min/m
39 136 216 Kim LONER 1634 00:31:16 10:05 min/m
40 139 219 Jennifer COTO 1205 00:31:18 10:05 min/m
41 141 222 Alissa NELMS 1776 00:31:22 10:06 min/m
42 152 236 Heather LESTER 1618 00:31:44 10:14 min/m
43 156 240 Kelly HAJEK 1421 00:31:46 10:14 min/m
44 157 244 Megan HIGGINBOTHAM 1446 00:31:53 10:16 min/m
45 158 246 Khishgee CANALES 1155 00:31:56 10:18 min/m
46 168 259 Lisa FLORES 1313 00:32:22 10:26 min/m
47 169 260 Amanda MILLER 1736 00:32:23 10:26 min/m
48 173 266 Amy ARAGUZ 1029 00:32:27 10:27 min/m
49 175 269 Brittany BRUGGMAN 1138 00:32:34 10:30 min/m
50 186 281 Amanda GEORGE 1357 00:32:51 10:35 min/m
51 190 286 Jennifer HOLY 1468 00:33:00 10:38 min/m
52 192 289 Katey BARNES 1059 00:33:05 10:40 min/m
53 193 290 Misty BLAKEWAY 1098 00:33:05 10:40 min/m
54 198 298 Crystal FEXER 1308 00:33:24 10:46 min/m
55 200 302 Courtney SMALL 1979 00:33:28 10:47 min/m
56 203 307 Jackie BECERRA 1069 00:33:33 10:49 min/m
57 204 309 Shannon WOLFORD 2178 00:33:33 10:49 min/m
58 209 317 Regina WHITE 2147 00:33:38 10:50 min/m
59 215 326 Ash Din 1163 00:33:45 10:53 min/m
60 219 332 Malinda STEWART 2018 00:33:50 10:54 min/m
61 221 334 Megan MOONJIAN 1749 00:33:50 10:54 min/m
62 227 343 Melissa GILBERT 1362 00:33:55 10:56 min/m
63 229 345 Carrie JENKINS 1495 00:34:00 10:57 min/m
64 231 348 Nicole LEKAS 1613 00:34:04 10:59 min/m
65 236 353 Lauren MARTIN 1674 00:34:12 11:01 min/m
66 255 377 Stacy MEUTH 1730 00:34:36 11:09 min/m
67 260 384 Angie ROYDER 1923 00:34:42 11:11 min/m
68 267 397 Amanda LEWIS 1624 00:34:52 11:14 min/m
69 272 402 Heather RODRIGUEZ 1917 00:34:54 11:15 min/m
70 275 405 Dianna JACKSON 1490 00:34:55 11:15 min/m
71 276 408 Stephanie BLANEY 1104 00:34:57 11:16 min/m
72 293 434 Maria POLYZOI 1836 00:35:20 11:23 min/m
73 296 438 Tanya HERNANDEZ 1442 00:35:30 11:26 min/m
74 302 447 Nicole RODRIGUEZ 1913 00:35:38 11:29 min/m
75 303 449 Jennifer DAILY 1231 00:35:44 11:31 min/m
76 307 454 Rebecca PEAVLER 1816 00:35:49 11:32 min/m
77 311 461 Renae HERNANDEZ 1443 00:35:56 11:35 min/m
78 315 466 Shanna BRANTLEY 1120 00:36:25 11:44 min/m
79 316 467 Jessica LAMBECK 1586 00:36:25 11:44 min/m
80 317 468 Katherine TOMKINS 2071 00:36:27 11:45 min/m
81 321 473 Robin BRENK 1122 00:36:35 11:48 min/m
82 326 483 Calista UPHAM 2083 00:36:53 11:53 min/m
83 329 488 Meredith WUNSCH 2187 00:36:58 11:55 min/m
84 330 490 Victoria BOSCH 1116 00:37:11 11:59 min/m
85 336 497 Jessica FARNELL 1303 00:37:39 12:08 min/m
86 338 500 Brooke MCCOY 1700 00:37:44 12:10 min/m
87 340 502 Alexis CURRIE 1227 00:37:57 12:14 min/m
88 346 510 Lindsey JONES 1514 00:38:01 12:15 min/m
89 357 523 Niki BROWN 1137 00:38:32 12:25 min/m
90 360 526 Amanda CHAFFIN 1167 00:38:34 12:26 min/m
91 361 527 Sarah MENGERS 1726 00:38:35 12:26 min/m
92 367 537 Mindy REDDING 1876 00:38:46 12:30 min/m
93 370 540 Kendal UTLEY 2086 00:38:53 12:32 min/m
94 372 543 Brooke MORRISON 1764 00:38:53 12:32 min/m
95 376 550 Sarah DVORAK 1276 00:38:58 12:33 min/m
96 378 552 Dori RAMIREZ 1859 00:39:12 12:38 min/m
97 379 553 Peggy SIMONS 1972 00:39:17 12:40 min/m
98 381 555 Kim DOLFI 1267 00:39:21 12:41 min/m
99 383 557 Katrina SANTOS 1945 00:39:23 12:42 min/m
100 386 562 Toni GALVAN 1335 00:39:33 12:45 min/m
101 390 567 Kaye HAINES 1418 00:39:38 12:46 min/m
102 395 572 Chyn JING 1502 00:39:48 12:50 min/m
103 404 585 Brittany GONZALEZ 1375 00:39:57 12:53 min/m
104 405 586 Danielle CLARK 1179 00:40:05 12:55 min/m
105 412 598 Lauren NEWTON 1780 00:40:18 12:59 min/m
106 413 599 Pearly EHLERS 1285 00:40:19 13:00 min/m
107 415 601 Kristi NEWCOMB 1778 00:40:21 13:00 min/m
108 418 607 Corinne PINTER 1833 00:40:22 13:01 min/m
109 422 612 Sara EVANS 1291 00:40:24 13:01 min/m
110 423 614 Anna TREVINO 2075 00:40:24 13:01 min/m
111 433 625 Kristy WOLFF 2177 00:40:45 13:08 min/m
112 436 628 Theresa GRAY 1399 00:40:49 13:09 min/m
113 438 631 Katy RIGGS 1893 00:40:55 13:11 min/m
114 440 633 Amber REEVES 1878 00:40:56 13:12 min/m
115 441 634 Crystal YOUNG 2193 00:41:00 13:13 min/m
116 448 645 Elena MENDEZ 1721 00:41:30 13:23 min/m
117 450 647 Valerie EDWARDS 1284 00:41:31 13:23 min/m
118 451 648 Rita MATOS 1684 00:41:33 13:24 min/m
119 456 654 Kristen ROYDER 1925 00:41:40 13:26 min/m
120 457 657 Jamie AUSLEY 1040 00:41:47 13:28 min/m
121 460 660 Lupe GONZALES 1374 00:41:56 13:31 min/m
122 462 663 June ADCOX 1005 00:42:03 13:33 min/m
123 464 665 Kristen TREIDER 2074 00:42:10 13:35 min/m
124 467 668 Marca EWERS 1296 00:42:21 13:39 min/m
125 473 675 Dusty WHITFIELD 2152 00:42:34 13:43 min/m
126 476 680 Candace RIKE 1897 00:42:43 13:46 min/m
127 480 686 Marisa LAUGHLIN 1597 00:42:45 13:47 min/m
128 481 687 Leslie GARCIA 1343 00:42:49 13:48 min/m
129 483 690 Erica BLAKLEY 1101 00:42:52 13:49 min/m
130 484 691 Jessica SNOOK 1986 00:42:53 13:49 min/m
131 487 695 Claudette MITAL 1739 00:42:57 13:50 min/m
132 488 696 Lorena PONCE 1838 00:42:57 13:51 min/m
133 497 709 Katie KAVANAGH 1524 00:43:28 14:01 min/m
134 500 712 Carrie DAVIES 1236 00:43:39 14:04 min/m
135 501 714 Rosanna MARLAND 1670 00:43:46 14:06 min/m
136 502 715 Jennifer ABERCROMBIE 1001 00:43:46 14:06 min/m
137 503 716 Stephani GOLIE 1373 00:43:50 14:08 min/m
138 504 717 Brandy BARNES 1060 00:43:50 14:08 min/m
139 507 722 Ashley WEAVER 2138 00:44:08 14:13 min/m
140 511 727 Lindsey FREMIN 1323 00:44:19 14:17 min/m
141 512 728 Julie BLACKWELL 1094 00:44:22 14:18 min/m
142 514 732 Danielle BROWN 1134 00:44:39 14:24 min/m
143 519 738 Dawn DIETZ 1261 00:44:53 14:28 min/m
144 522 743 Shelby UBRICH 2080 00:45:24 14:38 min/m
145 526 749 Amanda DAVIS 1243 00:45:58 14:49 min/m
146 530 754 Kathleen ZIMMERMAN 2196 00:46:00 14:50 min/m
147 531 755 Sierra SOLIS 1990 00:46:04 14:51 min/m
148 535 761 Crystal MOODY 1748 00:46:18 14:56 min/m
149 539 766 Megan HAINES 1419 00:46:23 14:57 min/m
150 547 776 Nicole HARLMON 1428 00:46:34 15:00 min/m
151 549 780 Dana BELLINGER 1076 00:46:47 15:05 min/m
152 554 787 Theodora CHASPARI 1172 00:47:05 15:11 min/m
153 556 789 Maria KOLIOU 1566 00:47:05 15:11 min/m
154 557 790 Amber MILAM 1735 00:47:06 15:11 min/m
155 564 801 Michelle APPEL 1027 00:47:28 15:18 min/m
156 580 821 Kimberly SWANSON 2041 00:48:35 15:40 min/m
157 585 826 Erin EDWARDS 1282 00:48:40 15:41 min/m
158 590 833 Kelsey CHARRON 1171 00:49:10 15:51 min/m
159 593 836 Jessica MEADORS 1716 00:49:20 15:54 min/m
160 596 839 Rainbow HUGHES 1478 00:49:32 15:58 min/m
161 601 845 Angela KOLIBA 1565 00:49:57 16:06 min/m
162 603 848 Joyce SCHMUTZER 1952 00:50:01 16:07 min/m
163 606 851 Melissa LOVE 1645 00:50:04 16:08 min/m
164 609 855 Amy WEBB 2139 00:50:09 16:10 min/m
165 611 858 Crystal SANCHEZ 1943 00:50:16 16:12 min/m
166 617 864 Stephanie LONON 1637 00:50:45 16:21 min/m
167 618 866 Nikki LOVELL 1647 00:50:54 16:25 min/m
168 620 868 Amy GRAHAM 1392 00:50:54 16:25 min/m
169 623 873 Karisa CHERRY 1173 00:51:11 16:30 min/m
170 624 874 Leah FOREMAN 1320 00:51:12 16:30 min/m
171 625 875 Megan LEFNER 1612 00:51:12 16:30 min/m
172 626 876 Jennifer GREEN 1401 00:51:12 16:30 min/m
173 630 882 Jenni ADAMS 1002 00:51:29 16:36 min/m
174 633 885 Nikki MCCLENEY 1696 00:51:33 16:37 min/m
175 634 886 Megan MCINTIRE 1706 00:51:34 16:38 min/m
176 636 888 Mayra RODRIGUEZ 1911 00:51:41 16:40 min/m
177 641 895 Sarah WATKINS 2137 00:52:27 16:54 min/m
178 646 901 Julia ODESKI 1796 00:52:48 17:01 min/m
179 651 911 Shannon AVILA 1042 00:53:17 17:11 min/m
180 662 928 Kimberly GIESENSCHLAG 1360 00:53:42 17:19 min/m
181 663 929 Erin GAAS 1329 00:53:43 17:19 min/m
182 668 934 Sunita COURSEY 1207 00:54:30 17:34 min/m
183 671 938 Amber TAROL 2048 00:54:35 17:36 min/m
184 676 948 Nichole HEJL 1435 00:55:30 17:54 min/m
185 684 956 Carolina UVALLE 2088 00:56:03 18:04 min/m
186 695 972 Laura SMITH 1981 00:57:04 18:24 min/m
187 696 976 Jennifer MOSSBURG 1768 00:57:09 18:25 min/m
188 700 982 Tiffany STRONG 2032 00:57:13 18:27 min/m
189 713 1003 Jessica GORSKI 1384 00:58:41 18:55 min/m
190 714 1004 Lisa LUC 1650 00:58:41 18:55 min/m
191 715 1006 Corrie MARQUARDT 1671 00:58:57 19:00 min/m
192 725 1021 Jamie MALDONADO 1662 00:59:23 19:09 min/m
193 732 1029 Noura J RANDLE 1862 01:00:30 19:30 min/m
194 734 1032 Sarah ANDERSEN 1022 01:00:33 19:31 min/m
195 736 1034 Amanda CAMPBELL 1153 01:00:54 19:38 min/m
196 738 1037 Cynthia UEHARA 2081 01:00:59 19:40 min/m
197 742 1044 Shannon GOODRUM 1382 01:01:24 19:48 min/m
198 743 1045 Shawna EVERETT 1294 01:01:24 19:48 min/m
199 747 1051 Elizabeth GENUARDI 1354 01:02:46 20:14 min/m
200 754 1059 Juliana MENDOZA 1722 01:10:13 22:38 min/m
Male
1 6 9 Alan GASKA 1352 00:20:08 6:29 min/m
2 9 14 Josh REAMES 1872 00:21:11 6:49 min/m
3 15 24 Justin SPILLER 2009 00:22:02 7:06 min/m
4 18 29 Tanner RUST 1935 00:22:27 7:14 min/m
5 20 33 Patrick HORNE 1470 00:22:37 7:17 min/m
6 24 46 Mike MITCHELL 1740 00:23:33 7:35 min/m
7 25 49 Daniel BRACEWELL 1118 00:23:45 7:39 min/m
8 34 68 Eloy JUAREZ 1520 00:25:16 8:09 min/m
9 40 81 Dalton VANN 2090 00:26:23 8:30 min/m
10 41 83 Caleb OFLAHERTY 1800 00:26:25 8:31 min/m
11 54 140 Andrew FISCHER 1311 00:28:50 9:17 min/m
12 57 145 Dennis SUIJKERBUIJK 2036 00:28:56 9:19 min/m
13 59 153 Thomas SNAVELY 1985 00:29:12 9:24 min/m
14 61 162 Booky GOEBEL 1370 00:29:23 9:28 min/m
15 67 180 Justin SUTHERLAND 2040 00:30:06 9:42 min/m
16 70 186 Richard JARVIS 1494 00:30:16 9:45 min/m
17 80 215 Jason LONER 1636 00:31:16 10:04 min/m
18 85 241 Leonard RIVERA 1903 00:31:49 10:15 min/m
19 89 247 Max CLAMON 1178 00:32:03 10:20 min/m
20 90 252 Trevor ROYDER 1924 00:32:14 10:23 min/m
21 91 254 Joey GIRARD 1366 00:32:15 10:24 min/m
22 92 262 Brandon MONROE 1747 00:32:24 10:27 min/m
23 98 291 Troy BARNES 1058 00:33:06 10:40 min/m
24 100 296 Jason WHITFIELD 2151 00:33:08 10:41 min/m
25 104 306 Robert BLISS 1106 00:33:32 10:48 min/m
26 105 308 Kevin SEAWRIGHT 1964 00:33:33 10:49 min/m
27 107 315 Daniel QUAGLIATO 1856 00:33:37 10:50 min/m
28 108 316 Jeff SMITH 1980 00:33:37 10:50 min/m
29 111 324 Myles Din 1093 00:33:44 10:52 min/m
30 113 330 Ricardo GARCIA 1341 00:33:49 10:54 min/m
31 118 355 Rhyon BLAKE 1097 00:34:13 11:02 min/m
32 128 388 Thomas GRAHAM 1393 00:34:46 11:12 min/m
33 131 406 Jason LAMPE 1588 00:34:57 11:16 min/m
34 134 415 James WILCOX 2162 00:35:03 11:18 min/m
35 159 485 Josh NEWTON 1781 00:36:54 11:53 min/m
36 162 499 Thomas WILLIAMS 2167 00:37:42 12:09 min/m
37 164 506 Michael WHITLOW 2155 00:37:58 12:14 min/m
38 167 528 Joshua ROBERTS 1906 00:38:36 12:26 min/m
39 179 578 Chih-Wei HSU 1474 00:39:52 12:51 min/m
40 182 588 Brian TILLER 2066 00:40:05 12:55 min/m
41 188 604 Jacob PEAVLER 1818 00:40:21 13:00 min/m
42 191 613 Marty SANCHEZ 1944 00:40:24 13:01 min/m
43 195 640 Sebastien RASSINOUX 1865 00:41:17 13:18 min/m
44 197 644 Ernest OLIVA 1802 00:41:22 13:20 min/m
45 202 669 Blake WYATT 2189 00:42:21 13:39 min/m
46 213 713 Markus HODGES 1458 00:43:46 14:06 min/m
47 214 720 Hector GALVAN 1336 00:44:05 14:13 min/m
48 215 721 Eric JOHN 1504 00:44:07 14:13 min/m
49 221 742 Casey MITCHELL 1742 00:45:23 14:38 min/m
50 225 758 Thomas ODESKI 1797 00:46:18 14:55 min/m
51 227 765 Brandon PARKER 1811 00:46:21 14:57 min/m
52 233 784 Amir BEHZADAN 1072 00:47:04 15:10 min/m
53 234 793 Akhtar SAMANI 1942 00:47:09 15:12 min/m
54 235 794 John RAMIREZ 1860 00:47:10 15:12 min/m
55 238 802 Joshua CONE 1197 00:47:41 15:22 min/m
56 242 827 Mason EDWARDS 1283 00:48:41 15:41 min/m
57 243 830 Ryan LAWRENCE 1602 00:48:53 15:46 min/m
58 248 865 Kenneth LOVELL 1646 00:50:52 16:24 min/m
59 258 905 Nicholas GRAFTON 1388 00:52:55 17:04 min/m
60 268 939 Andrew TAROL 2049 00:54:36 17:36 min/m
61 275 969 Kevin STRONG 2033 00:57:01 18:23 min/m
62 278 973 Collin SMITH 1982 00:57:06 18:24 min/m
63 284 988 Summer LAAKE 1583 00:57:36 18:34 min/m
64 285 989 Joseph KEOWN 1538 00:57:37 18:34 min/m
65 286 990 Keith LAUGHLIN 1598 00:57:38 18:35 min/m
66 294 1015 Ryan KUNZ 1582 00:59:06 19:03 min/m
67 297 1027 Matthew ETCHELLS 1290 01:00:28 19:30 min/m
68 298 1030 Christopher MATHEY 1681 01:00:31 19:31 min/m
69 305 1056 Sergio LUNA 1651 01:05:21 21:04 min/m
Ages 40 - 49
Female
1 5 13 Jennifer RIGGS 1889 00:21:00 6:46 min/m
2 6 19 Lara FONT 1316 00:21:30 6:56 min/m
3 9 22 Kelly BRACEWELL 1117 00:21:47 7:01 min/m
4 11 27 Heather SNYDER 1989 00:22:23 7:12 min/m
5 13 31 Sharlene TATE 2051 00:22:34 7:16 min/m
6 15 35 Rebecca DECKER 1248 00:22:49 7:21 min/m
7 36 70 Amy HINCKLEY 1449 00:25:28 8:12 min/m
8 38 73 Kami COOTS 1201 00:25:44 8:17 min/m
9 40 76 Jennifer LITTLE 1626 00:25:59 8:22 min/m
10 48 89 Brandi WATKINS 2136 00:27:09 8:45 min/m
11 56 100 Deanna KENNEDY 1533 00:27:36 8:54 min/m
12 63 108 Carmen CUELLAR 1218 00:27:52 8:59 min/m
13 71 120 Cheryl TARVER 2050 00:28:20 9:08 min/m
14 75 127 Erin FELDMANN 1305 00:28:31 9:11 min/m
15 77 130 Susanne WHITLEY 2153 00:28:37 9:13 min/m
16 82 135 Melissa KRAUSE 1575 00:28:44 9:15 min/m
17 84 137 Stacy MOSS 1766 00:28:47 9:17 min/m
18 97 157 Kim KOWALIK 1573 00:29:16 9:26 min/m
19 100 160 Jennifer LEWIS 1622 00:29:20 9:27 min/m
20 110 174 Deris HILLER 1448 00:29:55 9:38 min/m
21 111 175 Heather YEATES-JOHNSON 2191 00:29:57 9:39 min/m
22 126 202 Stephanie LERCH 1616 00:30:58 9:59 min/m
23 132 208 Azucena MAYORGA 1692 00:31:07 10:02 min/m
24 134 213 Shelly CLAMON 1177 00:31:15 10:04 min/m
25 138 218 Elizabeth BALDOCK 1055 00:31:17 10:05 min/m
26 155 239 Andreea TAGLA 2046 00:31:46 10:14 min/m
27 165 256 Jeannette MARTIN 1676 00:32:16 10:24 min/m
28 172 265 Kelly HENRY 1438 00:32:27 10:27 min/m
29 174 268 Laura GALVAN 1337 00:32:31 10:29 min/m
30 179 273 Denise ESPINOZA 1289 00:32:36 10:30 min/m
31 187 282 Christina MIDDLETON 1734 00:32:57 10:37 min/m
32 189 284 Christiane KLING 1559 00:32:58 10:37 min/m
33 199 299 Jennifer MILLS 1737 00:33:25 10:46 min/m
34 205 310 Heather BLUE 1107 00:33:34 10:49 min/m
35 213 323 Cindy COX 1209 00:33:44 10:52 min/m
36 222 337 Lorrie SIGFORD 1968 00:33:52 10:55 min/m
37 239 358 Tammy DRERUP 1273 00:34:17 11:03 min/m
38 241 360 Blanca ROAN 1904 00:34:19 11:03 min/m
39 242 362 Kelli BORISKIE 1114 00:34:20 11:04 min/m
40 245 365 Denise STEWART 2019 00:34:25 11:05 min/m
41 246 366 Missy SEALE 1963 00:34:25 11:06 min/m
42 257 379 Renee SPATH 2003 00:34:38 11:10 min/m
43 266 396 Jamie MOORE 1750 00:34:51 11:14 min/m
44 271 401 Susan MERTINK 1728 00:34:54 11:15 min/m
45 274 404 Tammy ROBISON 1907 00:34:55 11:15 min/m
46 278 411 Julie UPTON 2084 00:35:01 11:17 min/m
47 279 412 Jody KOURY 1572 00:35:01 11:17 min/m
48 280 413 Connie DANDO 1232 00:35:02 11:17 min/m
49 295 437 Sandra BEALS 1066 00:35:22 11:24 min/m
50 298 442 Jennifer HESTER 1445 00:35:32 11:27 min/m
51 304 450 Rebecca MOORE 1754 00:35:45 11:31 min/m
52 313 463 Leslie LEE 1608 00:35:58 11:35 min/m
53 320 472 Kim WRIGHT 2184 00:36:34 11:47 min/m
54 328 487 Dana FAUST 1304 00:36:56 11:54 min/m
55 331 491 Jeannie WHITE 2148 00:37:13 12:00 min/m
56 332 493 Mariah SPENGLER 2004 00:37:19 12:02 min/m
57 339 501 Melissa WALL 2127 00:37:47 12:11 min/m
58 345 509 Amanda AUSTIN 1041 00:38:00 12:15 min/m
59 355 521 Thomas RYAN 1937 00:38:20 12:21 min/m
60 358 524 Bethany ALLEN 1019 00:38:32 12:25 min/m
61 359 525 Tammie BURLIN 1144 00:38:34 12:26 min/m
62 373 544 Shelley HANNAH 1425 00:38:56 12:33 min/m
63 374 545 Ricci WILSON 2174 00:38:56 12:33 min/m
64 380 554 Michelle POPE 1840 00:39:18 12:40 min/m
65 385 560 Shea WATKINS 2135 00:39:31 12:44 min/m
66 389 566 Brandy PRINZ 1843 00:39:37 12:46 min/m
67 392 569 Elizabeth VILLARREAL 2110 00:39:39 12:47 min/m
68 393 570 Alysia WEST 2145 00:39:42 12:48 min/m
69 396 573 Heather LEYLAND 1625 00:39:49 12:50 min/m
70 397 574 Denise GODKIN 1367 00:39:49 12:50 min/m
71 399 576 Tanya HAWKINS 1434 00:39:51 12:51 min/m
72 401 582 Amy MCMAHAN 1711 00:39:56 12:52 min/m
73 403 584 Joanna SKARE 1974 00:39:57 12:53 min/m
74 408 591 Teresa CARTER 1164 00:40:12 12:57 min/m
75 409 592 Heather CRAWFORD 1212 00:40:13 12:58 min/m
76 411 595 Vicki TERRELL 2057 00:40:17 12:59 min/m
77 419 608 Stacey MITCHELL 1741 00:40:22 13:01 min/m
78 428 620 Christine JERIA 1498 00:40:39 13:06 min/m
79 435 627 Traci LOPEZ 1640 00:40:49 13:09 min/m
80 442 636 Tamara HITT 1453 00:41:01 13:13 min/m
81 443 637 Deawna GUILLOT 1405 00:41:01 13:13 min/m
82 446 641 Susan GRAY 1397 00:41:20 13:19 min/m
83 475 679 Daphne CHRISTIANSEN 1175 00:42:41 13:46 min/m
84 482 689 Jaelyn HARDY 1427 00:42:50 13:48 min/m
85 490 699 Barbara WHITTAKER 2157 00:43:05 13:53 min/m
86 491 700 Nicole ENCINO 1288 00:43:08 13:54 min/m
87 493 703 Christina THRALLS 2065 00:43:16 13:57 min/m
88 494 705 Donna MOREFIELD 1756 00:43:20 13:58 min/m
89 495 706 Cindy COMBS 1193 00:43:21 13:59 min/m
90 520 740 Jennifer BISSETT 1085 00:45:07 14:33 min/m
91 521 741 Audrea KILLALEA 1549 00:45:15 14:35 min/m
92 523 745 Liyen KEEN 1526 00:45:31 14:40 min/m
93 527 750 Rachel ALLEN 1018 00:45:58 14:49 min/m
94 528 751 Veronica WESBROOK 2144 00:45:59 14:49 min/m
95 536 762 Renee ALFARO 1009 00:46:19 14:56 min/m
96 537 763 Dawn MOORE 1752 00:46:19 14:56 min/m
97 540 768 Misty STONE 2022 00:46:24 14:57 min/m
98 543 771 Kelley BUTLER 1146 00:46:25 14:58 min/m
99 544 772 Elizabeth WALL 2126 00:46:25 14:58 min/m
100 545 773 Toni RYAN 1938 00:46:27 14:58 min/m
101 551 783 Stacey MANNING 1665 00:47:04 15:10 min/m
102 553 786 Mary CHANDLER 1169 00:47:05 15:10 min/m
103 555 788 Carol PEEK 1820 00:47:05 15:11 min/m
104 561 798 Valorie Sanders 1186 00:47:19 15:15 min/m
105 562 799 Beki MCSHAN 1713 00:47:23 15:16 min/m
106 563 800 Alyson FERGUSON 1306 00:47:24 15:17 min/m
107 567 805 Jessica DUCKWORTH 1275 00:47:45 15:24 min/m
108 570 810 Mollie MAUCH 1687 00:48:02 15:29 min/m
109 572 812 Wendy SPOTTSWOOD 2012 00:48:13 15:32 min/m
110 581 822 Robyn McDonald 2201 00:48:35 15:40 min/m
111 591 834 Trish WALDEN 2118 00:49:16 15:53 min/m
112 594 837 Angie BYRD 1149 00:49:22 15:55 min/m
113 600 844 Juliee SPARKS 2000 00:49:57 16:06 min/m
114 602 847 Holly HUBER 1477 00:49:58 16:07 min/m
115 604 849 Diana KOLIBA 1564 00:50:01 16:07 min/m
116 605 850 Michelle NOVOTNY 1791 00:50:03 16:08 min/m
117 619 867 Missy MORIARTY 1760 00:50:54 16:25 min/m
118 621 870 Shanon SWOR 2042 00:50:59 16:26 min/m
119 627 877 Leanne FLOYD 1315 00:51:13 16:30 min/m
120 632 884 Michele SCAIFE 1947 00:51:30 16:36 min/m
121 637 891 Pam ZODA 2197 00:51:52 16:43 min/m
122 650 910 Tonia BENNETT 1077 00:53:17 17:11 min/m
123 652 912 Cindy VEGA 2101 00:53:17 17:11 min/m
124 654 914 Cari KERSTIENS 1541 00:53:19 17:11 min/m
125 656 920 Adrienne RHODES 1886 00:53:32 17:16 min/m
126 669 935 Nancy PULPAN 1854 00:54:30 17:34 min/m
127 670 937 Sarah TOBOLA 2067 00:54:34 17:35 min/m
128 683 955 Bonnie BLAKEY 1099 00:55:50 18:00 min/m
129 690 963 Sommer PHARR 1829 00:56:31 18:13 min/m
130 698 979 Katherine DAVIS 1240 00:57:10 18:26 min/m
131 703 986 Megan STRAUSS 2026 00:57:33 18:33 min/m
132 705 993 Heather HOUK 1471 00:57:57 18:41 min/m
133 706 994 Rhonda GEORGE 1356 00:57:58 18:41 min/m
134 711 1000 Kendra MATHIS 1683 00:58:19 18:48 min/m
135 727 1023 Tiffanj CLARK 1182 00:59:42 19:15 min/m
136 733 1031 Pamela BLACKLEDGE 1091 01:00:33 19:31 min/m
137 737 1035 Valerie MARTIN 1675 01:00:54 19:38 min/m
138 744 1047 Laura VARELA 2092 01:02:40 20:12 min/m
139 748 1052 Crystal POMEROY 1837 01:02:49 20:15 min/m
140 751 1055 Diane BRYAND 1139 01:04:37 20:50 min/m
141 752 1057 Heather SHIELDS 1967 01:06:04 21:18 min/m
Male
1 26 50 Justin WEST 2146 00:23:46 7:39 min/m
2 32 60 Rene RODRIGUEZ 1914 00:24:47 7:59 min/m
3 33 67 Kevin MODGLIN 1744 00:25:16 8:08 min/m
4 36 75 Geoff MAY 1690 00:25:57 8:22 min/m
5 38 78 Jay AVILA 1043 00:26:10 8:26 min/m
6 46 110 Walter GONZALEZ 1378 00:27:55 9:00 min/m
7 47 111 Martha MENDOZA 1723 00:27:57 9:00 min/m
8 48 113 Michael FONT 1317 00:27:59 9:01 min/m
9 49 116 Jerry SPOTTSWOOD 2011 00:28:11 9:05 min/m
10 52 125 Marcus THOMPSON 2062 00:28:29 9:11 min/m
11 53 129 Lonny WRIGHT 2185 00:28:33 9:12 min/m
12 58 147 Charles JOINER 1507 00:29:06 9:23 min/m
13 64 172 Tim RYAN 1939 00:29:45 9:35 min/m
14 66 177 Louis LAWRENCE 1601 00:30:04 9:41 min/m
15 78 211 Danny TATE 2055 00:31:13 10:04 min/m
16 96 285 Robert RAUSCH 1866 00:32:59 10:38 min/m
17 101 300 John HAGLUND 1413 00:33:25 10:46 min/m
18 102 301 Harley FEXER 1307 00:33:25 10:46 min/m
19 124 382 Marcus WORTHAM 2183 00:34:40 11:10 min/m
20 126 386 Brian GUTIERREZ 1408 00:34:45 11:12 min/m
21 127 387 Miguel GARCIA 1344 00:34:46 11:12 min/m
22 129 389 William LESTER 1619 00:34:47 11:13 min/m
23 151 464 Shane HINCKLEY 1451 00:36:22 11:43 min/m
24 152 469 Danny ARRIAGA 1035 00:36:30 11:46 min/m
25 165 512 Rodolfo RUIZ 1930 00:38:04 12:16 min/m
26 172 547 Paul KILLALEA 1547 00:38:57 12:33 min/m
27 184 594 Chris CRAWFORD 1213 00:40:15 12:58 min/m
28 185 596 Josh TERRELL 2058 00:40:17 12:59 min/m
29 193 630 David RIGGS 1894 00:40:54 13:11 min/m
30 199 655 Tommy PADILLA 1808 00:41:40 13:26 min/m
31 203 677 Stephen KEEN 1527 00:42:37 13:44 min/m
32 211 704 Stacey DOWTHITT 1272 00:43:20 13:58 min/m
33 212 708 Colleen COCKRUM 1190 00:43:27 14:00 min/m
34 218 731 Chris KERSTIENS 1542 00:44:36 14:23 min/m
35 231 778 Richard BELLINGER 1075 00:46:45 15:04 min/m
36 232 782 Albert JERIA 1497 00:47:01 15:09 min/m
37 237 797 Greg Sanders 1131 00:47:19 15:15 min/m
38 246 853 Ed SABO 1940 00:50:05 16:09 min/m
39 256 902 Rich NODAR 1784 00:52:48 17:01 min/m
40 263 917 Rodney REEVES 1877 00:53:31 17:15 min/m
41 267 936 Mike HOLLOMAN 1465 00:54:34 17:35 min/m
42 269 941 Gary TOBOLA 2068 00:54:36 17:36 min/m
43 280 975 Bart STRAUSS 2027 00:57:08 18:25 min/m
44 290 1002 Brian GEORGE 1355 00:58:39 18:55 min/m
45 291 1005 Keith BOONE 1112 00:58:56 19:00 min/m
46 304 1048 Danny VARELA 2091 01:02:40 20:12 min/m
Ages 50 +
Female
1 17 37 Maryann CANON 1157 00:22:55 7:23 min/m
2 21 44 Sandy KERRIGAN 1540 00:23:24 7:32 min/m
3 22 45 Susanne WILKERSON 2163 00:23:24 7:32 min/m
4 79 132 Jeri RIPPON 1902 00:28:40 9:14 min/m
5 92 150 Angie COMER 1194 00:29:10 9:24 min/m
6 96 155 Kim TOMME 2072 00:29:14 9:25 min/m
7 103 165 Cindy FREEMAN 1322 00:29:26 9:29 min/m
8 104 166 Susan COUCH 1206 00:29:30 9:30 min/m
9 108 171 Cathy LOCKE 1630 00:29:39 9:33 min/m
10 127 203 Diane EATINGER 1279 00:31:02 10:00 min/m
11 140 220 Rhonda WILSON 2173 00:31:19 10:05 min/m
12 147 230 Deborah GOODMAN 1381 00:31:32 10:10 min/m
13 151 234 Patricia HAIGWOOD 1414 00:31:42 10:13 min/m
14 167 258 Karen WILSON 2171 00:32:22 10:26 min/m
15 176 270 Cindy BALOG-ALVAREZ 1056 00:32:35 10:30 min/m
16 181 275 Doylene DAVIS 1246 00:32:43 10:33 min/m
17 182 276 Debbie MORGAN 1759 00:32:44 10:33 min/m
18 188 283 Eva CLAWSON 1185 00:32:58 10:37 min/m
19 197 297 Diane NAZIMEK 1775 00:33:23 10:46 min/m
20 201 303 Diane SCHULIEN 1955 00:33:31 10:48 min/m
21 202 305 Rose CALHOUN 1152 00:33:31 10:48 min/m
22 232 349 Rose CARSTNS 1162 00:34:07 11:00 min/m
23 240 359 Sandra PETERS 1827 00:34:17 11:03 min/m
24 252 374 Karen DONNELLY 1270 00:34:32 11:08 min/m
25 268 398 Mitzi BURNS 1145 00:34:53 11:14 min/m
26 269 399 Kris FRENCHAK 1324 00:34:53 11:15 min/m
27 270 400 Gillian WENDEL 2142 00:34:53 11:15 min/m
28 282 417 Rozalyn MCGOVERN 1704 00:35:07 11:19 min/m
29 285 422 Patty BAKER 1052 00:35:12 11:21 min/m
30 288 428 Renee LANNUTTI 1592 00:35:16 11:22 min/m
31 289 429 Melissa REAGAN 1870 00:35:17 11:22 min/m
32 290 430 Kathi SWULIUS 2044 00:35:17 11:22 min/m
33 292 433 Constance STOKES 2020 00:35:20 11:23 min/m
34 318 470 Becky COLLET 1191 00:36:32 11:46 min/m
35 322 477 Darcy WILLIAMS 2169 00:36:44 11:50 min/m
36 325 482 Joann PENA 1823 00:36:53 11:53 min/m
37 327 486 Tammy HERRIN 1444 00:36:55 11:54 min/m
38 342 504 Rhena WHITLOW 2154 00:37:58 12:14 min/m
39 343 507 Sandra CURRIE 1225 00:37:58 12:14 min/m
40 344 508 Ava P JANICEK 1492 00:37:59 12:15 min/m
41 364 533 Dana ANDERSON 1023 00:38:42 12:28 min/m
42 365 534 Sherrey STARR 2016 00:38:43 12:29 min/m
43 366 536 Shelley STARR 2017 00:38:44 12:29 min/m
44 368 538 Leslie VENABLES 2107 00:38:47 12:30 min/m
45 369 539 Missy PETERS 1826 00:38:52 12:32 min/m
46 371 542 Stephanie MOSSBURG 1770 00:38:53 12:32 min/m
47 377 551 Mary ROYDER 1928 00:39:09 12:37 min/m
48 427 618 Ardis BOONE 1113 00:40:36 13:05 min/m
49 430 622 Cathy SCHWANKE 1959 00:40:42 13:07 min/m
50 434 626 Denise NORTON 1788 00:40:46 13:08 min/m
51 466 667 Lauri EWERS 1295 00:42:20 13:39 min/m
52 469 671 Holly FICKLING 1309 00:42:23 13:40 min/m
53 471 673 Elissa WAGNER 2117 00:42:30 13:42 min/m
54 474 676 Teresa HARRIS 1431 00:42:36 13:44 min/m
55 478 683 Beverly EASTWOOD 1277 00:42:44 13:46 min/m
56 489 698 Karen FAGERQUIST 1298 00:43:04 13:53 min/m
57 498 710 Jill ROE 1918 00:43:30 14:01 min/m
58 499 711 Deborah JONES 1517 00:43:30 14:01 min/m
59 506 719 Katheryn KING 1554 00:44:05 14:13 min/m
60 508 723 Sally HENDERSON 1436 00:44:09 14:14 min/m
61 510 726 Linda PHARR 1830 00:44:18 14:17 min/m
62 518 737 Charla SHAW 1965 00:44:51 14:27 min/m
63 524 746 Wanda LEON 1615 00:45:40 14:43 min/m
64 525 747 Laura RIDDLE 1888 00:45:41 14:43 min/m
65 550 781 Sandra KINCAID 1553 00:46:51 15:06 min/m
66 552 785 Elizabeth WALICKI 2123 00:47:04 15:10 min/m
67 558 791 Maria CULLEY 1221 00:47:08 15:12 min/m
68 573 813 Corina BUENTELLO 1141 00:48:15 15:33 min/m
69 574 815 Cindy GARRETT 1348 00:48:16 15:33 min/m
70 578 819 Albertina ELFARRAH 1286 00:48:20 15:35 min/m
71 583 824 Gina MORRISON 1763 00:48:39 15:41 min/m
72 587 829 Cindy DAVIS 1245 00:48:53 15:45 min/m
73 588 831 Sharon NOLAN 1786 00:48:54 15:46 min/m
74 592 835 Susan MEADORS 1717 00:49:20 15:54 min/m
75 597 840 Geri WARD 2132 00:49:33 15:58 min/m
76 599 843 Robin SCHMIDGALL 1950 00:49:35 15:59 min/m
77 608 854 Susan PATTERSON 1814 00:50:09 16:10 min/m
78 612 859 Alice SCHULTZ 1957 00:50:18 16:13 min/m
79 622 871 Anne EAVES 1281 00:51:03 16:27 min/m
80 635 887 Susan JONES 1510 00:51:37 16:38 min/m
81 638 892 Letha THOMPSON 2064 00:52:00 16:46 min/m
82 642 896 Margo CHANDLER 1170 00:52:30 16:56 min/m
83 643 897 Pamela BAGGETT 1047 00:52:31 16:56 min/m
84 648 906 Nancy BIRNBAUM 1083 00:53:07 17:07 min/m
85 649 909 Monica SIMMONS 1969 00:53:14 17:10 min/m
86 658 922 Cindy KORENEK 1568 00:53:36 17:17 min/m
87 661 927 Karen GAAS 1328 00:53:40 17:18 min/m
88 665 931 Ceeann STREETS 2031 00:54:02 17:25 min/m
89 673 945 Charlotte BAJOIE 1051 00:55:13 17:48 min/m
90 675 947 Nancy ADAMS 1004 00:55:29 17:53 min/m
91 677 949 Becky WALKER 2124 00:55:31 17:54 min/m
92 678 950 Barb REYNOLDS 1885 00:55:34 17:55 min/m
93 679 951 Kim WILLIAMS 2168 00:55:36 17:55 min/m
94 680 952 Cynthia REYBURN 1882 00:55:36 17:56 min/m
95 681 953 Sherry FULLER 1327 00:55:38 17:56 min/m
96 682 954 Connie CAVENESS 1165 00:55:41 17:57 min/m
97 688 961 Sherri FORD 1319 00:56:23 18:11 min/m
98 691 964 Ella COOPER 1200 00:56:38 18:15 min/m
99 692 965 Stella WHITMIRE 2156 00:56:41 18:16 min/m
100 699 981 Pam WELLS 2140 00:57:12 18:26 min/m
101 704 987 Eunice BOEDEKER 1108 00:57:35 18:34 min/m
102 710 999 Felecia HUX 1485 00:58:19 18:48 min/m
103 716 1007 Cheri DAIGLE 1230 00:58:58 19:00 min/m
104 717 1008 Janice KERR 1539 00:58:58 19:01 min/m
105 718 1009 Debbie WILLIAMS 2165 00:58:59 19:01 min/m
106 719 1010 Karen BAKER 1054 00:58:59 19:01 min/m
107 720 1011 Sandra SHENKIR 1966 00:59:02 19:02 min/m
108 722 1016 Kelle HARPER 1429 00:59:06 19:03 min/m
109 729 1025 Roni BREWER 1123 01:00:06 19:22 min/m
110 735 1033 Angie SPARKMAN 1998 01:00:53 19:38 min/m
111 739 1039 Lisa LAY 1604 01:01:11 19:44 min/m
112 740 1042 Mary KEOWN 1536 01:01:22 19:47 min/m
113 745 1049 Lanell CORLEY 1203 01:02:44 20:14 min/m
114 746 1050 Vivian POWELL 1841 01:02:45 20:14 min/m
115 749 1053 Andrea HUNTSBERGER 1480 01:03:24 20:26 min/m
116 750 1054 Sarah RUMFIELD 1931 01:03:44 20:33 min/m
117 756 1061 Kris KING 1556 01:10:44 22:48 min/m
118 757 1062 Dana SPARKS 1999 01:10:45 22:49 min/m
119 758 1063 Kellie MAEKER 1661 01:10:46 22:49 min/m
Male
1 12 17 Domingo JUAREZ 1519 00:21:24 6:54 min/m
2 37 77 Bobby MARQUES 1672 00:26:07 8:25 min/m
3 39 79 Terry COX 1208 00:26:18 8:28 min/m
4 43 98 Michael VAUGHAN 2099 00:27:29 8:51 min/m
5 51 123 David MCMURRAY 1712 00:28:28 9:10 min/m
6 60 156 Brett SNYDER 1988 00:29:14 9:25 min/m
7 65 176 Steven LOCKE 1629 00:30:01 9:40 min/m
8 71 187 Ronald EATINGER 1278 00:30:22 9:47 min/m
9 72 188 Ron BILLINGSLEY 1082 00:30:27 9:49 min/m
10 76 196 Reed O'CONNOR 1794 00:30:47 9:55 min/m
11 82 225 Alejandro ALFARO 1011 00:31:25 10:07 min/m
12 83 227 Bruce PEELE 1821 00:31:29 10:09 min/m
13 86 242 Mark SOMMER 1992 00:31:50 10:16 min/m
14 87 243 Scott CIGICH 1176 00:31:51 10:16 min/m
15 97 287 John SPENGLER 2005 00:33:03 10:39 min/m
16 99 292 Mitch CLARK 1181 00:33:06 10:40 min/m
17 109 318 Michael KORENEK 1569 00:33:38 10:50 min/m
18 116 340 Cory RIGGS 1890 00:33:54 10:55 min/m
19 120 361 Terry BORISKIE 1115 00:34:20 11:04 min/m
20 123 380 Jon SKARE 1973 00:34:39 11:10 min/m
21 132 407 David PROCHASKA 1847 00:34:57 11:16 min/m
22 133 409 Brent FRENCHAK 1325 00:34:57 11:16 min/m
23 136 419 Billy MERTINK 1729 00:35:08 11:19 min/m
24 137 420 Russell COX 1210 00:35:08 11:19 min/m
25 138 423 John WAGNER 2115 00:35:14 11:21 min/m
26 139 425 Nick LANNUTTI 1593 00:35:16 11:22 min/m
27 141 431 Glenn STARNES 2015 00:35:20 11:23 min/m
28 143 440 Randy BAKER 1053 00:35:30 11:27 min/m
29 160 489 Andrew STOWERS 2024 00:37:06 11:57 min/m
30 163 505 Jason CURRIE 1224 00:37:58 12:14 min/m
31 171 541 David MOSSBURG 1771 00:38:53 12:32 min/m
32 174 549 Randy RIPPLE 1900 00:38:58 12:33 min/m
33 177 563 Michael SPALDING 1996 00:39:33 12:45 min/m
34 216 724 Steve HENDERSON 1437 00:44:10 14:14 min/m
35 224 752 Allan FAGERQUIST 1299 00:45:59 14:49 min/m
36 226 760 Chuck MOORE 1751 00:46:18 14:55 min/m
37 241 814 James WARD 2131 00:48:15 15:33 min/m
38 250 872 Timothy EAVES 1280 00:51:06 16:28 min/m
39 253 889 Paul CULLEY 1222 00:51:46 16:41 min/m
40 254 890 Michael JONES 1509 00:51:47 16:42 min/m
41 255 900 Bruce BAGGETT 1048 00:52:32 16:56 min/m
42 261 915 Ross BENNETT 1078 00:53:20 17:12 min/m
43 265 923 Daryl BISSETT 1087 00:53:37 17:17 min/m
44 270 942 Tim SURRATT 2037 00:54:37 17:36 min/m
45 272 944 Jeff ADCOX 1006 00:55:12 17:48 min/m
46 273 959 Keith FORD 1318 00:56:19 18:09 min/m
47 282 980 Tony DAVIS 1241 00:57:10 18:26 min/m
48 283 983 Eddie WELLS 2141 00:57:13 18:27 min/m
49 288 992 Matthew HOUK 1472 00:57:57 18:41 min/m
50 295 1019 Ken WHITTAKER 2158 00:59:11 19:05 min/m
51 301 1040 Jimmy LAY 1605 01:01:13 19:44 min/m
52 302 1041 Kenneth KEOWN 1537 01:01:21 19:47 min/m
53 303 1046 Todd RUMFIELD 1932 01:01:52 19:57 min/m
Race timing by RRPTiming.com!

© copyright 2013, RRPTiming.com. RRPTiming is a Redemption Race Productions site. Website by Rich.